Terminal Aerodrome Forecast
Issued by NWS Huntsville, AL

Home | Current Version | Previous Version | Text Only | Print | Product List | Glossary On
Versions: 1 2 3 4 5 6 7 8 9 10 11 12 13 14 15 16 17 18 19 20
000
FTUS44 KHUN 050520
TAFMSL
TAF
KMSL 050520Z 0506/0606 35005KT P6SM SKC
      TEMPO 0510/0514 5SM BR
     FM051400 32010G20KT P6SM SCT050
     FM052000 32015G25KT P6SM BKN050
     FM060100 35005KT P6SM SKC=

USA.gov is the U.S. government's official web portal to all federal, state and local government web resources and services.